Time;durP1;ratioP1;P1;durP2;ratioP2;P2;SDS_P1;SDS_P2;PMS_P1;PMS_P2;Temp;Humidity;BMP_temperature;BMP_pressure;BME280_temperature;BME280_humidity;BME280_pressure;Samples;Min_cycle;Max_cycle;Signal;HPM_P1;HPM_P2
2022/02/13 00:01:47;;;;;;;7.28;3.00;;;;;;;;;;5136221;27;20051;-66
2022/02/13 00:04:14;;;;;;;4.47;2.92;;;;;;;;;;5135536;27;20127;-66
2022/02/13 00:06:40;;;;;;;5.82;2.75;;;;;;;;;;5117169;27;20036;-65
2022/02/13 00:09:06;;;;;;;5.70;3.10;;;;;;;;;;5115711;28;20035;-70
2022/02/13 00:11:32;;;;;;;6.85;3.17;;;;;;;;;;5115710;28;20031;-70
2022/02/13 00:13:58;;;;;;;5.88;3.60;;;;;;;;;;5115778;28;20019;-66
2022/02/13 00:16:24;;;;;;;8.40;3.20;;;;;;;;;;5116080;28;20122;-65
2022/02/13 00:18:50;;;;;;;5.30;2.97;;;;;;;;;;5115440;28;20077;-66
2022/02/13 00:21:16;;;;;;;5.53;3.15;;;;;;;;;;5115405;28;20028;-66
2022/02/13 00:23:42;;;;;;;5.05;2.80;;;;;;;;;;5115519;28;20024;-68
2022/02/13 00:26:08;;;;;;;4.63;3.00;;;;;;;;;;5115192;28;20126;-68
2022/02/13 00:28:36;;;;;;;6.32;3.10;;;;;;;;;;5097079;28;20352;-66
2022/02/13 00:31:02;;;;;;;5.32;2.67;;;;;;;;;;5115514;27;20023;-67
2022/02/13 00:33:28;;;;;;;5.43;3.35;;;;;;;;;;5135440;27;20021;-67
2022/02/13 00:35:54;;;;;;;7.43;3.55;;;;;;;;;;5114969;28;20027;-66
2022/02/13 00:38:20;;;;;;;6.07;3.03;;;;;;;;;;5115143;28;20019;-65
2022/02/13 00:40:46;;;;;;;5.22;3.10;;;;;;;;;;5096847;28;20081;-68
2022/02/13 00:43:13;;;;;;;5.40;3.10;;;;;;;;;;5115077;28;20027;-66
2022/02/13 00:45:39;;;;;;;3.75;2.78;;;;;;;;;;5096730;28;20110;-66
2022/02/13 00:48:07;;;;;;;4.97;2.75;;;;;;;;;;5108922;27;20122;-66
2022/02/13 00:50:33;;;;;;;4.07;2.75;;;;;;;;;;5125974;27;20047;-68
2022/02/13 00:52:59;;;;;;;7.20;3.38;;;;;;;;;;5114517;28;20058;-66
2022/02/13 00:55:25;;;;;;;6.95;3.65;;;;;;;;;;5114680;28;20023;-66
2022/02/13 00:57:51;;;;;;;4.28;2.83;;;;;;;;;;5114677;28;20165;-67
2022/02/13 01:00:17;;;;;;;5.05;3.30;;;;;;;;;;5114694;28;20035;-66
2022/02/13 01:02:43;;;;;;;4.65;3.08;;;;;;;;;;5114560;28;20024;-69
2022/02/13 01:05:09;;;;;;;6.13;3.08;;;;;;;;;;5117628;27;20389;-66
2022/02/13 01:07:35;;;;;;;4.20;2.90;;;;;;;;;;5117184;27;20107;-69
2022/02/13 01:10:01;;;;;;;4.97;3.10;;;;;;;;;;5114929;28;20470;-68
2022/02/13 01:12:27;;;;;;;4.18;2.70;;;;;;;;;;5114375;28;20035;-66
2022/02/13 01:14:53;;;;;;;4.28;2.85;;;;;;;;;;5096101;28;20053;-67
2022/02/13 01:17:19;;;;;;;5.00;2.90;;;;;;;;;;5114735;28;20015;-68
2022/02/13 01:19:45;;;;;;;6.20;3.30;;;;;;;;;;5114456;28;20030;-69
2022/02/13 01:22:12;;;;;;;5.43;3.13;;;;;;;;;;5114278;28;20035;-69
2022/02/13 01:24:38;;;;;;;5.35;2.83;;;;;;;;;;5095592;28;20106;-66
2022/02/13 01:27:04;;;;;;;4.90;2.90;;;;;;;;;;5114209;28;20122;-67
2022/02/13 01:29:30;;;;;;;4.60;2.80;;;;;;;;;;5113949;28;20155;-65
2022/02/13 01:31:56;;;;;;;4.50;2.88;;;;;;;;;;5113784;28;20455;-65
2022/02/13 01:34:22;;;;;;;5.50;3.42;;;;;;;;;;5118720;27;20073;-68
2022/02/13 01:36:48;;;;;;;5.85;3.58;;;;;;;;;;5117596;27;20023;-68
2022/02/13 01:39:15;;;;;;;6.15;2.95;;;;;;;;;;5116604;27;20019;-68
2022/02/13 01:41:41;;;;;;;11.10;3.03;;;;;;;;;;5134274;27;20031;-66
2022/02/13 01:44:21;;;;;;;5.18;3.10;;;;;;;;;;5134146;27;20494;-65
2022/02/13 01:46:50;;;;;;;4.25;3.10;;;;;;;;;;5134176;27;20114;-65
2022/02/13 01:49:16;;;;;;;4.72;3.10;;;;;;;;;;5134174;27;20019;-65
2022/02/13 01:51:42;;;;;;;6.35;3.28;;;;;;;;;;5131489;27;20087;-65
2022/02/13 01:54:10;;;;;;;5.72;3.22;;;;;;;;;;5127658;27;20475;-68
2022/02/13 01:56:36;;;;;;;4.20;2.65;;;;;;;;;;5134047;27;20022;-66
2022/02/13 01:59:02;;;;;;;4.25;2.88;;;;;;;;;;5115743;27;20031;-66
2022/02/13 02:01:28;;;;;;;3.83;2.90;;;;;;;;;;5134413;27;20068;-66
2022/02/13 02:03:54;;;;;;;6.03;3.13;;;;;;;;;;5134076;27;20030;-69
2022/02/13 02:06:20;;;;;;;4.78;3.22;;;;;;;;;;5133500;27;20041;-70
2022/02/13 02:08:46;;;;;;;5.35;3.15;;;;;;;;;;5122906;27;20019;-66
2022/02/13 02:11:12;;;;;;;5.47;3.15;;;;;;;;;;5113509;28;20027;-68
2022/02/13 02:13:38;;;;;;;5.75;3.30;;;;;;;;;;5113610;28;20416;-68
2022/02/13 02:16:04;;;;;;;5.60;3.08;;;;;;;;;;5113577;28;20506;-68
2022/02/13 02:18:30;;;;;;;4.85;3.08;;;;;;;;;;5113290;28;20336;-66
2022/02/13 02:21:02;;;;;;;4.90;2.80;;;;;;;;;;5113696;28;20023;-67
2022/02/13 02:23:29;;;;;;;5.05;3.45;;;;;;;;;;5113365;28;20024;-64
2022/02/13 02:25:55;;;;;;;8.00;3.13;;;;;;;;;;5094913;28;20044;-68
2022/02/13 02:28:21;;;;;;;4.63;2.83;;;;;;;;;;5095274;28;20123;-66
2022/02/13 02:30:47;;;;;;;5.40;2.88;;;;;;;;;;5113241;28;20024;-68
2022/02/13 02:33:14;;;;;;;3.88;2.92;;;;;;;;;;5113308;28;20031;-68
2022/02/13 02:35:40;;;;;;;5.93;3.20;;;;;;;;;;5113153;28;20497;-71
2022/02/13 02:38:06;;;;;;;5.88;2.63;;;;;;;;;;5113351;28;20029;-68
2022/02/13 02:40:32;;;;;;;6.53;2.78;;;;;;;;;;5101319;28;20489;-67
2022/02/13 02:42:58;;;;;;;5.07;2.70;;;;;;;;;;5123028;28;20019;-68
2022/02/13 02:45:24;;;;;;;7.82;2.80;;;;;;;;;;5095282;28;20028;-69
2022/02/13 02:47:50;;;;;;;6.88;3.28;;;;;;;;;;5116368;28;20028;-69
2022/02/13 02:50:16;;;;;;;8.20;2.97;;;;;;;;;;5117539;28;20028;-70
2022/02/13 02:52:42;;;;;;;4.57;2.97;;;;;;;;;;5125565;27;20038;-68
2022/02/13 02:55:08;;;;;;;6.30;2.97;;;;;;;;;;5137902;27;20031;-69
2022/02/13 02:57:35;;;;;;;5.30;2.83;;;;;;;;;;5127611;27;20047;-68
2022/02/13 03:00:01;;;;;;;6.57;3.10;;;;;;;;;;5110768;27;20084;-67
2022/02/13 03:02:27;;;;;;;11.75;3.63;;;;;;;;;;5125848;27;20028;-67
2022/02/13 03:04:53;;;;;;;16.35;3.30;;;;;;;;;;5107824;27;20031;-67
2022/02/13 03:07:19;;;;;;;5.18;3.20;;;;;;;;;;5110399;27;20023;-67
2022/02/13 03:09:45;;;;;;;7.18;3.05;;;;;;;;;;5128532;27;20026;-67
2022/02/13 03:12:11;;;;;;;5.25;3.05;;;;;;;;;;5133118;27;20097;-68
2022/02/13 03:14:37;;;;;;;9.27;3.08;;;;;;;;;;5130071;27;20029;-71
2022/02/13 03:17:06;;;;;;;8.52;2.45;;;;;;;;;;5123149;27;20463;-69
2022/02/13 03:19:32;;;;;;;17.23;3.08;;;;;;;;;;5127167;27;20023;-69
2022/02/13 03:21:58;;;;;;;10.90;3.22;;;;;;;;;;5132161;27;20019;-68
2022/02/13 03:24:24;;;;;;;5.95;3.00;;;;;;;;;;5099273;28;20123;-71
2022/02/13 03:26:50;;;;;;;6.55;3.10;;;;;;;;;;5116735;28;20032;-71
2022/02/13 03:29:17;;;;;;;6.85;3.30;;;;;;;;;;5098705;28;20498;-72
2022/02/13 03:31:43;;;;;;;5.55;2.95;;;;;;;;;;5123044;27;20031;-70
2022/02/13 03:34:09;;;;;;;7.85;3.45;;;;;;;;;;5122749;27;20042;-70
2022/02/13 03:36:35;;;;;;;11.57;3.42;;;;;;;;;;5117021;28;20467;-70
2022/02/13 03:39:01;;;;;;;9.15;3.28;;;;;;;;;;5116963;28;20023;-68
2022/02/13 03:41:27;;;;;;;8.43;3.13;;;;;;;;;;5117031;28;20028;-70
2022/02/13 03:43:53;;;;;;;9.35;3.40;;;;;;;;;;5116723;28;20030;-68
2022/02/13 03:46:20;;;;;;;6.05;3.10;;;;;;;;;;5116516;28;20035;-68
2022/02/13 03:48:46;;;;;;;7.82;3.38;;;;;;;;;;5116282;28;20026;-69
2022/02/13 03:51:14;;;;;;;11.02;3.55;;;;;;;;;;5135978;27;20066;-68
2022/02/13 03:53:40;;;;;;;10.18;3.40;;;;;;;;;;5136883;27;20023;-69
2022/02/13 03:56:06;;;;;;;7.50;2.83;;;;;;;;;;5118203;27;20106;-69
2022/02/13 03:58:32;;;;;;;8.43;2.70;;;;;;;;;;5136252;27;20047;-68
2022/02/13 04:00:59;;;;;;;5.75;3.05;;;;;;;;;;5137015;27;20035;-68
2022/02/13 04:03:25;;;;;;;8.50;2.83;;;;;;;;;;5136813;27;20019;-68
2022/02/13 04:05:54;;;;;;;5.55;3.20;;;;;;;;;;5136302;27;20046;-68
2022/02/13 04:08:20;;;;;;;6.43;3.13;;;;;;;;;;5123446;27;20529;-68
2022/02/13 04:10:46;;;;;;;4.43;2.95;;;;;;;;;;5136506;27;20023;-69
2022/02/13 04:13:12;;;;;;;3.92;2.75;;;;;;;;;;5136583;27;20357;-67
2022/02/13 04:15:38;;;;;;;5.88;3.15;;;;;;;;;;5136495;27;20111;-66
2022/02/13 04:18:14;;;;;;;5.28;2.72;;;;;;;;;;5136522;27;20396;-68
2022/02/13 04:20:40;;;;;;;5.15;3.25;;;;;;;;;;5136239;27;20441;-68
2022/02/13 04:23:06;;;;;;;4.80;3.17;;;;;;;;;;5136670;27;20024;-67
2022/02/13 04:25:32;;;;;;;4.38;2.83;;;;;;;;;;5124581;27;20501;-68
2022/02/13 04:27:58;;;;;;;6.93;3.25;;;;;;;;;;5136354;27;20027;-68
2022/02/13 04:30:24;;;;;;;5.32;2.80;;;;;;;;;;5136108;27;20022;-68
2022/02/13 04:32:50;;;;;;;8.80;3.03;;;;;;;;;;5135918;27;20025;-66
2022/02/13 04:35:16;;;;;;;6.88;3.30;;;;;;;;;;5117572;27;20023;-68
2022/02/13 04:37:42;;;;;;;6.85;2.70;;;;;;;;;;5135884;27;20083;-68
2022/02/13 04:40:08;;;;;;;4.72;3.10;;;;;;;;;;5135796;27;20037;-67
2022/02/13 04:42:34;;;;;;;6.07;3.03;;;;;;;;;;5128743;27;20034;-67
2022/02/13 04:45:00;;;;;;;4.10;2.85;;;;;;;;;;5122363;27;20443;-66
2022/02/13 04:47:26;;;;;;;6.15;3.50;;;;;;;;;;5115254;28;20034;-66
2022/02/13 04:49:52;;;;;;;4.18;2.83;;;;;;;;;;5114946;28;20049;-68
2022/02/13 04:52:18;;;;;;;5.93;3.10;;;;;;;;;;5114818;28;20020;-68
2022/02/13 04:54:44;;;;;;;4.53;2.63;;;;;;;;;;5114748;28;20027;-67
2022/02/13 04:57:10;;;;;;;6.75;2.90;;;;;;;;;;5122443;27;20035;-71
2022/02/13 04:59:37;;;;;;;4.18;2.90;;;;;;;;;;5126877;27;20462;-70
2022/02/13 05:02:04;;;;;;;4.57;2.90;;;;;;;;;;5117202;27;20027;-70
2022/02/13 05:04:30;;;;;;;4.10;2.72;;;;;;;;;;5135521;27;20023;-70
2022/02/13 05:06:56;;;;;;;3.55;2.50;;;;;;;;;;5135378;27;20083;-67
2022/02/13 05:09:22;;;;;;;6.05;2.83;;;;;;;;;;5134458;27;20023;-69
2022/02/13 05:11:48;;;;;;;4.70;2.78;;;;;;;;;;5116798;27;20026;-68
2022/02/13 05:14:14;;;;;;;4.05;2.85;;;;;;;;;;5116922;27;20054;-67
2022/02/13 05:16:40;;;;;;;5.50;2.72;;;;;;;;;;5135851;27;20015;-69
2022/02/13 05:19:07;;;;;;;5.82;3.00;;;;;;;;;;5135064;27;20447;-68
2022/02/13 05:21:33;;;;;;;4.43;2.42;;;;;;;;;;5116537;27;20019;-67
2022/02/13 05:23:59;;;;;;;5.25;3.00;;;;;;;;;;5134779;27;20106;-70
2022/02/13 05:26:25;;;;;;;5.20;2.80;;;;;;;;;;5134664;27;20122;-67
2022/02/13 05:28:54;;;;;;;6.05;3.03;;;;;;;;;;5131925;27;20028;-70
2022/02/13 05:31:20;;;;;;;4.10;2.60;;;;;;;;;;5114352;28;20030;-67
2022/02/13 05:33:46;;;;;;;6.72;3.35;;;;;;;;;;5114109;28;20020;-68
2022/02/13 05:36:12;;;;;;;5.25;2.95;;;;;;;;;;5114404;28;20034;-69
2022/02/13 05:38:38;;;;;;;4.88;2.50;;;;;;;;;;5114706;28;20463;-69
2022/02/13 05:41:04;;;;;;;3.40;2.65;;;;;;;;;;5114386;28;20030;-70
2022/02/13 05:43:30;;;;;;;5.95;3.03;;;;;;;;;;5095700;28;20068;-67
2022/02/13 05:45:56;;;;;;;6.07;3.08;;;;;;;;;;5129908;27;20035;-67
2022/02/13 05:48:24;;;;;;;6.85;2.97;;;;;;;;;;5130271;27;20027;-68
2022/02/13 05:50:51;;;;;;;7.07;3.13;;;;;;;;;;5115916;27;20402;-68
2022/02/13 05:53:17;;;;;;;7.10;2.80;;;;;;;;;;5103222;28;20045;-67
2022/02/13 05:55:43;;;;;;;4.90;2.60;;;;;;;;;;5113923;28;20097;-68
2022/02/13 05:58:09;;;;;;;4.80;2.60;;;;;;;;;;5114347;28;20063;-67
2022/02/13 06:00:35;;;;;;;3.95;2.78;;;;;;;;;;5113561;28;20027;-68
2022/02/13 06:03:01;;;;;;;7.30;2.80;;;;;;;;;;5114063;28;20032;-67
2022/02/13 06:05:27;;;;;;;4.55;3.00;;;;;;;;;;5113694;28;20375;-67
2022/02/13 06:07:53;;;;;;;6.63;3.08;;;;;;;;;;5113589;28;20024;-67
2022/02/13 06:10:19;;;;;;;5.40;2.90;;;;;;;;;;5126808;27;20027;-69
2022/02/13 06:12:45;;;;;;;5.68;2.80;;;;;;;;;;5134446;27;20381;-69
2022/02/13 06:15:11;;;;;;;4.65;2.78;;;;;;;;;;5134327;27;20019;-70
2022/02/13 06:17:37;;;;;;;6.55;3.20;;;;;;;;;;5134170;27;20027;-68
2022/02/13 06:20:03;;;;;;;2.85;2.40;;;;;;;;;;5134334;27;20072;-70
2022/02/13 06:22:32;;;;;;;8.43;3.38;;;;;;;;;;5115734;27;20031;-68
2022/02/13 06:24:58;;;;;;;4.95;2.72;;;;;;;;;;5128155;27;20493;-68
2022/02/13 06:27:24;;;;;;;4.72;3.25;;;;;;;;;;5114071;28;20023;-69
2022/02/13 06:29:50;;;;;;;5.28;2.53;;;;;;;;;;5125034;28;20023;-71
2022/02/13 06:32:16;;;;;;;4.35;2.58;;;;;;;;;;5125731;28;20023;-70
2022/02/13 06:34:43;;;;;;;3.97;2.50;;;;;;;;;;5134050;28;20379;-70
2022/02/13 06:37:09;;;;;;;7.35;2.67;;;;;;;;;;5134534;28;20015;-73
2022/02/13 06:39:35;;;;;;;5.07;2.63;;;;;;;;;;5134572;28;20027;-68
2022/02/13 06:42:01;;;;;;;6.50;2.88;;;;;;;;;;5128837;28;20032;-84
2022/02/13 06:44:27;;;;;;;7.00;2.60;;;;;;;;;;5099772;27;20026;-71
2022/02/13 06:46:53;;;;;;;8.50;2.88;;;;;;;;;;5118657;28;20024;-74
2022/02/13 06:49:19;;;;;;;5.15;2.95;;;;;;;;;;5119156;28;20049;-72
2022/02/13 06:51:45;;;;;;;5.93;3.00;;;;;;;;;;5121767;28;20012;-65
2022/02/13 06:54:11;;;;;;;6.60;2.83;;;;;;;;;;5122547;28;20394;-64
2022/02/13 06:56:37;;;;;;;5.68;2.65;;;;;;;;;;5125891;27;20015;-67
2022/02/13 06:59:04;;;;;;;6.97;2.72;;;;;;;;;;5113092;28;20028;-71
2022/02/13 07:01:30;;;;;;;4.53;2.53;;;;;;;;;;5123522;28;20023;-66
2022/02/13 07:03:56;;;;;;;4.65;2.50;;;;;;;;;;5122946;28;20019;-67
2022/02/13 07:06:22;;;;;;;7.10;2.92;;;;;;;;;;5121149;28;20035;-64
2022/02/13 07:08:49;;;;;;;4.47;2.80;;;;;;;;;;5100358;28;20352;-64
2022/02/13 07:11:15;;;;;;;5.47;2.63;;;;;;;;;;5120070;28;20016;-71
2022/02/13 07:13:41;;;;;;;4.85;2.63;;;;;;;;;;5103830;28;20023;-74
2022/02/13 07:16:07;;;;;;;5.00;2.83;;;;;;;;;;5118062;28;20487;-65
2022/02/13 07:18:33;;;;;;;4.20;2.67;;;;;;;;;;5124347;27;20023;-67
2022/02/13 07:20:59;;;;;;;10.43;2.33;;;;;;;;;;5114063;28;20054;-70
2022/02/13 07:23:25;;;;;;;4.38;2.75;;;;;;;;;;5119409;28;20614;-72
2022/02/13 07:25:52;;;;;;;8.73;2.83;;;;;;;;;;5116511;28;20189;-73
2022/02/13 07:31:03;;;;;;;5.45;3.00;;;;;;;;;;5122781;28;20664;-68
2022/02/13 07:33:29;;;;;;;5.47;2.72;;;;;;;;;;5125750;27;20030;-74
2022/02/13 07:35:55;;;;;;;4.85;2.83;;;;;;;;;;5113092;27;20028;-65
2022/02/13 07:38:21;;;;;;;4.05;2.72;;;;;;;;;;5120230;27;20026;-65
2022/02/13 07:40:47;;;;;;;6.97;3.00;;;;;;;;;;5124834;27;20019;-67
2022/02/13 07:43:15;;;;;;;7.78;3.15;;;;;;;;;;5132869;27;20138;-72
2022/02/13 07:45:41;;;;;;;7.50;3.58;;;;;;;;;;5129800;27;20479;-69
2022/02/13 07:48:09;;;;;;;4.78;2.83;;;;;;;;;;5108126;27;20070;-64
2022/02/13 07:50:35;;;;;;;7.75;3.22;;;;;;;;;;5123833;27;20467;-64
2022/02/13 07:53:01;;;;;;;2.95;2.47;;;;;;;;;;5115063;27;20056;-68
2022/02/13 07:55:29;;;;;;;5.43;2.58;;;;;;;;;;5126069;27;20022;-66
2022/02/13 07:57:55;;;;;;;4.47;2.70;;;;;;;;;;5111212;27;20027;-67
2022/02/13 08:00:21;;;;;;;14.68;3.08;;;;;;;;;;5128585;27;20022;-68
2022/02/13 08:02:47;;;;;;;4.88;2.88;;;;;;;;;;5132778;27;20027;-71
2022/02/13 08:05:14;;;;;;;4.60;2.72;;;;;;;;;;5133186;27;20075;-73
2022/02/13 08:07:46;;;;;;;6.13;2.92;;;;;;;;;;5123207;27;20024;-75
2022/02/13 08:10:13;;;;;;;6.45;3.05;;;;;;;;;;5118705;27;20092;-67
2022/02/13 08:12:39;;;;;;;5.03;2.92;;;;;;;;;;5127460;27;20046;-72
2022/02/13 08:15:05;;;;;;;8.82;2.97;;;;;;;;;;5119870;27;20046;-68
2022/02/13 08:17:31;;;;;;;7.07;3.30;;;;;;;;;;5124370;27;20084;-67
2022/02/13 08:19:58;;;;;;;5.88;2.92;;;;;;;;;;5120271;27;20030;-74
2022/02/13 08:22:24;;;;;;;7.07;3.30;;;;;;;;;;5114885;28;20141;-73
2022/02/13 08:24:50;;;;;;;7.03;3.40;;;;;;;;;;5096852;28;20138;-81
2022/02/13 08:27:16;;;;;;;7.03;3.70;;;;;;;;;;5118448;27;20364;-72
2022/02/13 08:29:42;;;;;;;5.30;2.97;;;;;;;;;;5123881;27;20019;-71
2022/02/13 08:32:08;;;;;;;7.72;3.42;;;;;;;;;;5127741;27;20532;-71
2022/02/13 08:34:35;;;;;;;8.52;3.28;;;;;;;;;;5127778;27;20113;-65
2022/02/13 08:37:01;;;;;;;8.00;2.85;;;;;;;;;;5110381;27;20011;-74
2022/02/13 08:39:27;;;;;;;7.47;3.40;;;;;;;;;;5128796;27;20068;-72
2022/02/13 08:41:53;;;;;;;5.38;3.22;;;;;;;;;;5121685;27;20027;-71
2022/02/13 08:44:20;;;;;;;10.07;3.35;;;;;;;;;;5121867;27;20550;-72
2022/02/13 08:46:46;;;;;;;4.68;2.95;;;;;;;;;;5128469;27;20027;-68
2022/02/13 08:49:12;;;;;;;9.35;2.92;;;;;;;;;;5121248;27;20080;-68
2022/02/13 08:51:38;;;;;;;17.00;3.30;;;;;;;;;;5122457;27;20024;-74
2022/02/13 08:54:04;;;;;;;12.02;3.55;;;;;;;;;;5126782;27;20419;-66
2022/02/13 08:56:31;;;;;;;11.48;3.60;;;;;;;;;;5130296;27;20016;-70
2022/02/13 08:58:59;;;;;;;11.52;3.67;;;;;;;;;;5126284;27;20073;-66
2022/02/13 09:01:25;;;;;;;8.55;3.33;;;;;;;;;;5107744;28;20074;-68
2022/02/13 09:03:51;;;;;;;9.23;3.55;;;;;;;;;;5122257;27;20027;-71
2022/02/13 09:06:17;;;;;;;7.47;3.25;;;;;;;;;;5123971;27;20029;-74
2022/02/13 09:08:43;;;;;;;8.30;3.60;;;;;;;;;;5128801;27;20042;-71
2022/02/13 09:11:12;;;;;;;9.15;3.10;;;;;;;;;;5124445;27;20049;-72
2022/02/13 09:13:38;;;;;;;9.57;3.95;;;;;;;;;;5122894;27;20039;-69
2022/02/13 09:16:05;;;;;;;10.30;3.25;;;;;;;;;;5126074;27;20020;-73
2022/02/13 09:18:31;;;;;;;6.93;3.17;;;;;;;;;;5128766;27;20027;-72
2022/02/13 09:20:57;;;;;;;13.30;3.38;;;;;;;;;;5125703;27;20058;-78
2022/02/13 09:23:23;;;;;;;18.05;4.28;;;;;;;;;;5107743;28;20039;-78
2022/02/13 09:25:49;;;;;;;17.60;4.57;;;;;;;;;;5098160;28;20553;-85
2022/02/13 09:28:16;;;;;;;22.52;4.00;;;;;;;;;;5125369;27;20016;-72
2022/02/13 09:30:46;;;;;;;10.05;3.67;;;;;;;;;;5136331;27;20039;-83
2022/02/13 09:33:12;;;;;;;15.50;3.90;;;;;;;;;;5137892;27;20019;-68
2022/02/13 09:35:39;;;;;;;19.35;4.05;;;;;;;;;;5134929;27;20035;-71
2022/02/13 09:38:04;;;;;;;16.77;3.40;;;;;;;;;;5127071;27;20023;-75
2022/02/13 09:40:33;;;;;;;8.50;3.58;;;;;;;;;;5120368;27;20087;-73
2022/02/13 09:43:05;;;;;;;7.72;3.10;;;;;;;;;;5098496;28;20506;-73
2022/02/13 09:45:32;;;;;;;9.77;3.30;;;;;;;;;;5123353;27;20039;-72
2022/02/13 09:47:59;;;;;;;20.30;3.58;;;;;;;;;;5125951;27;20019;-78
2022/02/13 09:50:25;;;;;;;12.30;3.28;;;;;;;;;;5126390;27;20026;-75
2022/02/13 09:52:54;;;;;;;12.32;3.40;;;;;;;;;;5119470;27;20031;-71
2022/02/13 09:55:29;;;;;;;10.73;4.05;;;;;;;;;;5126597;27;20482;-75
2022/02/13 09:58:04;;;;;;;6.65;3.00;;;;;;;;;;5131222;27;20023;-74
2022/02/13 10:00:50;;;;;;;6.70;3.50;;;;;;;;;;5131990;27;20027;-73
2022/02/13 10:03:23;;;;;;;9.75;3.95;;;;;;;;;;5115834;27;20027;-74
2022/02/13 10:05:49;;;;;;;13.85;3.85;;;;;;;;;;5133900;27;20023;-73
2022/02/13 10:08:35;;;;;;;9.75;4.75;;;;;;;;;;5133739;27;20038;-75
2022/02/13 10:11:17;;;;;;;21.80;4.68;;;;;;;;;;5133435;27;20656;-76
2022/02/13 10:13:43;;;;;;;19.08;4.25;;;;;;;;;;5118436;27;20450;-76
2022/02/13 10:16:16;;;;;;;10.52;4.05;;;;;;;;;;5114195;27;20016;-74
2022/02/13 10:19:12;;;;;;;10.18;4.32;;;;;;;;;;5095761;28;20494;-72
2022/02/13 10:21:43;;;;;;;9.40;4.13;;;;;;;;;;5091880;28;20036;-73
2022/02/13 10:24:12;;;;;;;7.78;3.85;;;;;;;;;;5094949;28;20620;-74
2022/02/13 10:26:38;;;;;;;7.65;3.95;;;;;;;;;;5124223;27;20043;-73
2022/02/13 10:29:04;;;;;;;11.90;3.90;;;;;;;;;;5115319;28;20381;-72
2022/02/13 10:31:30;;;;;;;11.18;3.95;;;;;;;;;;5115379;28;20034;-73
2022/02/13 10:34:00;;;;;;;12.90;4.63;;;;;;;;;;5133950;28;20369;-75
2022/02/13 10:36:26;;;;;;;12.07;5.03;;;;;;;;;;5115368;28;20027;-74
2022/02/13 10:38:52;;;;;;;17.65;4.43;;;;;;;;;;5115372;28;20470;-80
2022/02/13 10:41:24;;;;;;;21.25;4.68;;;;;;;;;;5133798;28;20019;-77
2022/02/13 10:43:59;;;;;;;18.80;4.63;;;;;;;;;;5133416;28;20511;-76
2022/02/13 10:46:28;;;;;;;18.08;4.60;;;;;;;;;;5115122;28;20035;-75
2022/02/13 10:48:54;;;;;;;17.45;5.20;;;;;;;;;;5133451;28;20023;-76
2022/02/13 10:51:21;;;;;;;14.63;4.40;;;;;;;;;;5133481;28;20063;-76
2022/02/13 10:53:47;;;;;;;12.43;4.63;;;;;;;;;;5133117;28;20451;-76
2022/02/13 10:56:14;;;;;;;10.70;4.18;;;;;;;;;;5115124;28;20027;-73
2022/02/13 10:58:40;;;;;;;14.70;3.90;;;;;;;;;;5133297;27;20410;-77
2022/02/13 11:01:06;;;;;;;15.02;4.18;;;;;;;;;;5133442;28;20015;-72
2022/02/13 11:03:33;;;;;;;13.05;4.00;;;;;;;;;;5115238;28;20647;-73
2022/02/13 11:05:59;;;;;;;12.48;3.55;;;;;;;;;;5115074;28;20035;-71
2022/02/13 11:08:28;;;;;;;7.05;3.63;;;;;;;;;;5135216;27;20045;-73
2022/02/13 11:10:57;;;;;;;9.60;3.83;;;;;;;;;;5118771;27;20438;-74
2022/02/13 11:13:30;;;;;;;11.25;3.85;;;;;;;;;;5118890;27;20034;-71
2022/02/13 11:15:56;;;;;;;9.35;3.65;;;;;;;;;;5137306;27;20377;-74
2022/02/13 11:18:24;;;;;;;13.10;3.38;;;;;;;;;;5118427;27;20470;-73
2022/02/13 11:20:56;;;;;;;9.85;3.58;;;;;;;;;;5137046;27;20108;-77
2022/02/13 11:23:31;;;;;;;15.30;3.13;;;;;;;;;;5118608;27;20019;-74
2022/02/13 11:26:07;;;;;;;10.43;3.35;;;;;;;;;;5136414;27;20043;-73
2022/02/13 11:28:43;;;;;;;4.55;2.88;;;;;;;;;;5137244;27;20053;-72
2022/02/13 11:31:29;;;;;;;6.78;3.03;;;;;;;;;;5135320;27;20028;-75
2022/02/13 11:33:56;;;;;;;4.75;2.63;;;;;;;;;;5128077;27;20072;-67
2022/02/13 11:36:22;;;;;;;6.47;3.08;;;;;;;;;;5136393;27;20030;-73
2022/02/13 11:38:48;;;;;;;5.00;2.42;;;;;;;;;;5137061;27;20027;-65
2022/02/13 11:41:15;;;;;;;11.60;2.90;;;;;;;;;;5136527;27;20015;-73
2022/02/13 11:43:50;;;;;;;5.03;2.45;;;;;;;;;;5136772;27;20041;-74
2022/02/13 11:46:30;;;;;;;12.98;3.03;;;;;;;;;;5136245;27;20095;-69
2022/02/13 11:49:15;;;;;;;6.15;2.58;;;;;;;;;;5151528;27;20023;-74
2022/02/13 11:51:56;;;;;;;9.10;2.47;;;;;;;;;;5137634;27;20031;-74
2022/02/13 11:54:40;;;;;;;5.43;2.65;;;;;;;;;;5136275;27;20015;-72
2022/02/13 11:57:19;;;;;;;4.18;2.35;;;;;;;;;;5136445;27;20015;-72
2022/02/13 11:59:57;;;;;;;6.25;2.70;;;;;;;;;;5136146;27;20028;-68
2022/02/13 12:02:45;;;;;;;4.10;2.40;;;;;;;;;;5135727;27;20027;-67
2022/02/13 12:05:13;;;;;;;3.25;2.13;;;;;;;;;;5097168;28;20478;-74
2022/02/13 12:07:42;;;;;;;6.05;2.63;;;;;;;;;;5115365;28;20069;-68
2022/02/13 12:10:13;;;;;;;5.93;2.22;;;;;;;;;;5097244;28;20023;-76
2022/02/13 12:12:40;;;;;;;7.80;2.42;;;;;;;;;;5115495;28;20031;-75
2022/02/13 12:15:06;;;;;;;5.65;2.58;;;;;;;;;;5115136;28;20030;-71
2022/02/13 12:17:33;;;;;;;5.20;2.28;;;;;;;;;;5096994;28;20114;-75
2022/02/13 12:20:04;;;;;;;7.90;2.30;;;;;;;;;;5142996;27;20023;-77
2022/02/13 12:22:30;;;;;;;4.30;2.47;;;;;;;;;;5135589;27;20106;-77
2022/02/13 12:24:58;;;;;;;5.78;2.50;;;;;;;;;;5137013;27;20043;-76
2022/02/13 12:27:25;;;;;;;7.47;2.28;;;;;;;;;;5135741;27;20031;-66
2022/02/13 12:29:54;;;;;;;3.10;2.38;;;;;;;;;;5135234;27;20023;-68
2022/02/13 12:32:24;;;;;;;12.30;2.25;;;;;;;;;;5135221;27;20421;-67
2022/02/13 12:34:51;;;;;;;8.02;2.33;;;;;;;;;;5135701;27;20049;-66
2022/02/13 12:37:17;;;;;;;7.10;2.15;;;;;;;;;;5127664;27;20516;-68
2022/02/13 12:39:51;;;;;;;10.30;2.00;;;;;;;;;;5104906;27;20031;-66
2022/02/13 12:42:27;;;;;;;7.28;2.30;;;;;;;;;;5120926;27;20020;-66
2022/02/13 12:44:54;;;;;;;12.32;2.25;;;;;;;;;;5123314;27;20447;-66
2022/02/13 12:47:25;;;;;;;12.18;2.35;;;;;;;;;;5107217;27;20027;-68
2022/02/13 12:49:51;;;;;;;8.95;2.75;;;;;;;;;;5120013;27;20041;-69
2022/02/13 12:52:17;;;;;;;4.05;2.05;;;;;;;;;;5106483;27;20049;-67
2022/02/13 12:54:43;;;;;;;4.25;2.20;;;;;;;;;;5107337;27;20023;-69
2022/02/13 12:57:17;;;;;;;3.65;2.17;;;;;;;;;;5127285;27;20019;-69
2022/02/13 12:59:43;;;;;;;6.20;2.10;;;;;;;;;;5118059;27;20030;-68
2022/02/13 13:02:23;;;;;;;5.47;2.20;;;;;;;;;;5126188;27;20114;-70
2022/02/13 13:04:52;;;;;;;2.78;2.08;;;;;;;;;;5130326;27;20038;-69
2022/02/13 13:07:22;;;;;;;5.97;2.75;;;;;;;;;;5119790;27;20561;-68
2022/02/13 13:09:50;;;;;;;6.53;2.20;;;;;;;;;;5130267;27;20027;-70
2022/02/13 13:12:20;;;;;;;5.57;2.30;;;;;;;;;;5122461;27;20050;-70
2022/02/13 13:14:58;;;;;;;5.80;2.85;;;;;;;;;;5114224;28;20123;-72
2022/02/13 13:17:25;;;;;;;4.15;2.53;;;;;;;;;;5114111;28;20016;-70
2022/02/13 13:19:51;;;;;;;6.60;2.55;;;;;;;;;;5113900;28;20083;-67
2022/02/13 13:22:24;;;;;;;2.58;2.13;;;;;;;;;;5099279;28;20063;-67
2022/02/13 13:24:51;;;;;;;4.53;2.15;;;;;;;;;;5101076;28;20035;-71
2022/02/13 13:27:18;;;;;;;3.35;2.20;;;;;;;;;;5128784;27;20462;-71
2022/02/13 13:29:45;;;;;;;4.38;2.25;;;;;;;;;;5120508;27;20027;-74
2022/02/13 13:32:12;;;;;;;5.80;2.65;;;;;;;;;;5116814;27;20482;-71
2022/02/13 13:34:38;;;;;;;6.50;2.22;;;;;;;;;;5112092;28;20027;-73
2022/02/13 13:37:20;;;;;;;2.67;2.20;;;;;;;;;;5116887;27;20024;-71
2022/02/13 13:39:57;;;;;;;3.28;2.00;;;;;;;;;;5129051;27;20034;-71
2022/02/13 13:42:28;;;;;;;3.47;2.25;;;;;;;;;;5124327;27;20023;-72
2022/02/13 13:45:04;;;;;;;5.68;2.22;;;;;;;;;;5112075;27;20506;-72
2022/02/13 13:47:30;;;;;;;3.50;2.25;;;;;;;;;;5113919;28;20359;-71
2022/02/13 13:49:56;;;;;;;2.55;1.85;;;;;;;;;;5121062;27;20038;-71
2022/02/13 13:52:22;;;;;;;2.83;2.00;;;;;;;;;;5110263;28;20023;-71
2022/02/13 13:54:48;;;;;;;4.00;2.08;;;;;;;;;;5124771;27;20034;-66
2022/02/13 13:57:14;;;;;;;3.80;2.17;;;;;;;;;;5125275;27;20026;-68
2022/02/13 13:59:40;;;;;;;2.45;1.95;;;;;;;;;;5121036;27;20101;-70
2022/02/13 14:02:18;;;;;;;2.30;2.00;;;;;;;;;;5123830;27;20023;-68
2022/02/13 14:04:44;;;;;;;9.63;2.20;;;;;;;;;;5118069;27;20093;-70
2022/02/13 14:07:10;;;;;;;10.43;2.03;;;;;;;;;;5129180;27;20058;-69
2022/02/13 14:09:36;;;;;;;5.88;1.95;;;;;;;;;;5130277;27;20423;-68
2022/02/13 14:12:02;;;;;;;7.13;2.35;;;;;;;;;;5119009;27;20024;-69
2022/02/13 14:14:28;;;;;;;10.95;2.35;;;;;;;;;;5123165;27;20027;-68
2022/02/13 14:16:59;;;;;;;6.03;2.88;;;;;;;;;;5105710;27;20118;-69
2022/02/13 14:19:25;;;;;;;6.90;2.58;;;;;;;;;;5120498;27;20026;-69
2022/02/13 14:21:51;;;;;;;14.20;2.67;;;;;;;;;;5123049;27;20019;-68
2022/02/13 14:24:17;;;;;;;6.45;2.53;;;;;;;;;;5127251;27;20030;-69
2022/02/13 14:26:43;;;;;;;7.78;2.70;;;;;;;;;;5129038;27;20043;-73
2022/02/13 14:29:11;;;;;;;4.65;2.80;;;;;;;;;;5120915;27;20023;-74
2022/02/13 14:31:37;;;;;;;6.72;3.08;;;;;;;;;;5114915;28;20462;-70
2022/02/13 14:34:03;;;;;;;8.43;3.15;;;;;;;;;;5124933;28;20035;-72
2022/02/13 14:36:29;;;;;;;8.55;3.25;;;;;;;;;;5110219;28;20030;-73
2022/02/13 14:38:55;;;;;;;5.65;2.47;;;;;;;;;;5119035;28;20038;-73
2022/02/13 14:41:21;;;;;;;25.75;3.08;;;;;;;;;;5125212;27;20012;-71
2022/02/13 14:43:47;;;;;;;13.98;3.08;;;;;;;;;;5117257;27;20030;-69
2022/02/13 14:46:14;;;;;;;4.90;2.13;;;;;;;;;;5133997;27;20034;-70